Terminal Aerodrome Forecast
Issued by NWS Jackson, MS

Home | Current Version | Previous Version | Text Only | Print | Product List | Glossary On
Versions: 1 2 3 4 5 6 7 8 9 10 11 12 13 14 15 16 17 18 19 20 21 22 23 24 25
000
FTUS44 KMEG 260526
TAFTUP
TAF
KTUP 260526Z 2606/2706 17010KT P6SM SCT035
      TEMPO 2606/2610 BKN025
     FM261000 17010KT P6SM VCTS SCT015CB OVC035
      TEMPO 2612/2614 3SM TSRA BR OVC015CB
     FM261400 18012KT 5SM -RA BR OVC015
     FM261900 19012G18KT P6SM VCSH OVC025
     FM262200 19010KT P6SM BKN035
     FM270100 18006KT P6SM BKN050=

USA.gov is the U.S. government's official web portal to all federal, state and local government web resources and services.